True, West Virginia
Current Conditions -  °F | °C
As of 1:51 AM on Thursday 23 Oct 2014 (Local Time) from KBKW Reporting Station
Overcast Overcast  
Wind Chill: 38°   Ceiling: 1300
Heat Index: 42°   Visibility: 10mi
Dew Point: 39°   Wind: 7mph
Humidity: 89%   Direction: 330°NNW
Pressure: 30.14"   Gusts: NA
Location:  37.58°N, 80.93°W
Report Text: KBKW 230551Z AUTO 33006KT 10SM OVC013 06/04 A3014 RMK AO2 SLP218 60001 T00560039 10061 20056 58010 TSNO
Loading
Personal Weather Stations






























Interactive Weather Map
Tropical Storm Tracking
New forecast layout! Learn more

10-Day Weather Forecast

Advertisements
Track Severe Weather on mobile